createdAt,value
2019-02-18T00:00:21.468Z,6.30
2019-02-18T00:02:50.057Z,5.87
2019-02-18T00:05:18.699Z,5.42
2019-02-18T00:07:47.283Z,6.28
2019-02-18T00:10:15.849Z,6.10
2019-02-18T00:12:44.449Z,7.00
2019-02-18T00:15:13.156Z,6.70
2019-02-18T00:17:41.749Z,6.72
2019-02-18T00:20:10.377Z,6.45
2019-02-18T00:22:38.978Z,4.87
2019-02-18T00:25:07.598Z,4.53
2019-02-18T00:27:36.205Z,3.92
2019-02-18T00:30:05.596Z,4.30
2019-02-18T00:32:34.269Z,3.92
2019-02-18T00:35:02.830Z,4.42
2019-02-18T00:37:31.424Z,4.47
2019-02-18T00:39:59.980Z,4.17
2019-02-18T00:42:28.573Z,4.40
2019-02-18T00:44:57.134Z,4.67
2019-02-18T00:47:25.728Z,5.22
2019-02-18T00:49:54.280Z,4.20
2019-02-18T00:52:22.947Z,4.92
2019-02-18T00:54:51.503Z,4.20
2019-02-18T00:57:20.097Z,4.45
2019-02-18T00:59:48.657Z,4.05
2019-02-18T01:02:17.258Z,4.50
2019-02-18T01:04:45.804Z,5.15
2019-02-18T01:07:14.400Z,4.87
2019-02-18T01:09:43.123Z,5.58
2019-02-18T01:12:11.793Z,4.37
2019-02-18T01:14:40.413Z,4.60
2019-02-18T01:17:09.014Z,3.95
2019-02-18T01:19:37.564Z,4.35
2019-02-18T01:22:06.161Z,4.90
2019-02-18T01:24:34.790Z,4.03
2019-02-18T01:27:03.563Z,4.60
2019-02-18T01:29:32.110Z,4.67
2019-02-18T01:32:00.707Z,3.55
2019-02-18T01:34:29.264Z,3.25
2019-02-18T01:36:57.820Z,3.30
2019-02-18T01:39:26.424Z,2.92
2019-02-18T01:41:54.979Z,2.85
2019-02-18T01:44:23.577Z,2.85
2019-02-18T01:46:52.132Z,3.90
2019-02-18T01:49:20.719Z,3.25
2019-02-18T01:51:49.277Z,3.58
2019-02-18T01:54:17.874Z,3.65
2019-02-18T01:56:46.424Z,3.62
2019-02-18T01:59:15.088Z,3.60
2019-02-18T02:01:43.642Z,3.70
2019-02-18T02:04:12.232Z,3.77
2019-02-18T02:06:40.854Z,3.42
2019-02-18T02:09:10.692Z,3.20
2019-02-18T02:11:39.261Z,3.60
2019-02-18T02:14:07.848Z,3.67
2019-02-18T02:16:36.472Z,4.00
2019-02-18T02:19:05.063Z,3.25
2019-02-18T02:21:33.616Z,3.00
2019-02-18T02:24:02.217Z,3.02
2019-02-18T02:26:30.764Z,2.90
2019-02-18T02:28:59.441Z,2.80
2019-02-18T02:31:28.127Z,2.77
2019-02-18T02:33:56.723Z,3.20
2019-02-18T02:36:25.276Z,3.20
2019-02-18T02:38:53.876Z,3.10
2019-02-18T02:41:22.505Z,3.40
2019-02-18T02:43:51.111Z,3.15
2019-02-18T02:46:19.726Z,3.33
2019-02-18T02:48:48.324Z,3.35
2019-02-18T02:51:16.880Z,3.67
2019-02-18T02:53:45.534Z,2.90
2019-02-18T02:56:14.034Z,3.55
2019-02-18T02:58:42.639Z,3.62
2019-02-18T03:01:11.260Z,3.83
2019-02-18T03:03:39.849Z,3.10
2019-02-18T03:06:08.477Z,3.62
2019-02-18T03:08:37.072Z,3.17
2019-02-18T03:11:05.697Z,3.45
2019-02-18T03:13:34.295Z,3.30
2019-02-18T03:16:02.904Z,3.35
2019-02-18T03:18:31.492Z,3.90
2019-02-18T03:21:00.053Z,3.85
2019-02-18T03:23:28.657Z,3.00
2019-02-18T03:25:57.280Z,3.22
2019-02-18T03:28:37.586Z,3.45
2019-02-18T03:31:12.052Z,3.30
2019-02-18T03:33:43.840Z,3.37
2019-02-18T03:36:12.383Z,3.90
2019-02-18T03:38:40.975Z,3.15
2019-02-18T03:41:09.545Z,4.42
2019-02-18T03:43:38.330Z,2.98
2019-02-18T03:46:06.956Z,3.75
2019-02-18T03:48:35.578Z,3.42
2019-02-18T03:51:04.315Z,3.40
2019-02-18T03:53:32.929Z,3.25
2019-02-18T03:56:01.594Z,3.85
2019-02-18T03:58:30.218Z,3.62
2019-02-18T04:00:58.874Z,3.90
2019-02-18T04:03:27.501Z,3.62
2019-02-18T04:05:56.088Z,3.67
2019-02-18T04:08:24.645Z,3.98
2019-02-18T04:10:53.232Z,3.67
2019-02-18T04:13:21.779Z,3.47
2019-02-18T04:15:50.377Z,3.58
2019-02-18T04:18:18.926Z,3.35
2019-02-18T04:20:47.524Z,3.52
2019-02-18T04:23:16.080Z,3.77
2019-02-18T04:25:44.686Z,3.20
2019-02-18T04:28:13.229Z,3.35
2019-02-18T04:30:41.816Z,3.75
2019-02-18T04:33:10.364Z,4.00
2019-02-18T04:35:38.960Z,3.90
2019-02-18T04:38:07.512Z,3.55
2019-02-18T04:40:36.109Z,3.85
2019-02-18T04:43:04.664Z,3.52
2019-02-18T04:45:33.293Z,3.55
2019-02-18T04:48:01.890Z,3.60
2019-02-18T04:50:30.440Z,3.42
2019-02-18T04:52:59.040Z,3.70
2019-02-18T04:55:27.586Z,4.05
2019-02-18T04:57:56.200Z,3.72
2019-02-18T05:00:24.760Z,3.37
2019-02-18T05:02:53.355Z,3.90
2019-02-18T05:05:21.939Z,3.92
2019-02-18T05:07:50.512Z,3.47
2019-02-18T05:10:19.062Z,3.87
2019-02-18T05:12:47.695Z,3.67
2019-02-18T05:15:16.334Z,4.70
2019-02-18T05:17:45.007Z,4.20
2019-02-18T05:20:13.628Z,4.45
2019-02-18T05:22:42.216Z,4.17
2019-02-18T05:25:12.911Z,3.52
2019-02-18T05:27:41.067Z,3.58
2019-02-18T05:30:11.359Z,3.77
2019-02-18T05:32:39.951Z,3.95
2019-02-18T05:35:08.744Z,4.33
2019-02-18T05:37:37.409Z,3.87
2019-02-18T05:40:07.801Z,4.53
2019-02-18T05:42:36.401Z,5.40
2019-02-18T05:45:07.191Z,4.70
2019-02-18T05:47:35.779Z,5.20
2019-02-18T05:50:04.968Z,4.70
2019-02-18T05:52:33.569Z,5.50
2019-02-18T05:55:02.117Z,4.70
2019-02-18T05:57:30.709Z,5.55
2019-02-18T05:59:59.262Z,5.05
2019-02-18T06:02:27.848Z,4.70
2019-02-18T06:04:56.405Z,4.70
2019-02-18T06:07:25.093Z,5.58
2019-02-18T06:09:53.619Z,5.60
2019-02-18T06:12:22.277Z,5.53
2019-02-18T06:14:50.829Z,8.53
2019-02-18T06:17:19.435Z,8.30
2019-02-18T06:19:47.987Z,7.97
2019-02-18T06:22:16.576Z,7.83
2019-02-18T06:24:45.131Z,7.62
2019-02-18T06:27:13.742Z,7.00
2019-02-18T06:29:42.292Z,6.20
2019-02-18T06:32:10.898Z,6.22
2019-02-18T06:34:39.444Z,6.67
2019-02-18T06:37:08.065Z,7.95
2019-02-18T06:39:41.288Z,8.60
2019-02-18T06:42:06.811Z,5.95
2019-02-18T06:44:37.066Z,5.15
2019-02-18T06:47:06.663Z,4.70
2019-02-18T06:49:35.252Z,4.80
2019-02-18T06:52:03.808Z,5.78
2019-02-18T06:54:32.405Z,5.25
2019-02-18T06:57:08.303Z,5.28
2019-02-18T06:59:38.533Z,5.20
2019-02-18T07:02:08.728Z,5.92
2019-02-18T07:04:38.964Z,5.65
2019-02-18T07:07:12.111Z,6.15
2019-02-18T07:09:51.344Z,6.53
2019-02-18T07:12:16.909Z,6.60
2019-02-18T07:14:45.509Z,6.40
2019-02-18T07:17:14.069Z,6.97
2019-02-18T07:19:42.656Z,7.10
2019-02-18T07:22:11.216Z,7.40
2019-02-18T07:24:39.823Z,7.20
2019-02-18T07:27:08.437Z,6.87
2019-02-18T07:29:37.037Z,6.78
2019-02-18T07:32:05.605Z,6.03
2019-02-18T07:34:34.277Z,7.35
2019-02-18T07:37:04.762Z,7.47
2019-02-18T07:39:35.017Z,6.45
2019-02-18T07:42:03.656Z,7.08
2019-02-18T07:44:32.276Z,7.90
2019-02-18T07:47:00.868Z,7.67
2019-02-18T07:49:29.505Z,8.70
2019-02-18T07:51:58.060Z,9.30
2019-02-18T07:54:26.671Z,9.43
2019-02-18T07:56:55.237Z,10.28
2019-02-18T07:59:23.874Z,11.00
2019-02-18T08:01:52.441Z,10.65
2019-02-18T08:04:21.048Z,10.95
2019-02-18T08:06:49.615Z,12.50
2019-02-18T08:09:18.286Z,15.68
2019-02-18T08:11:46.878Z,19.02
2019-02-18T08:14:15.493Z,29.72
2019-02-18T08:16:44.185Z,19.27
2019-02-18T08:19:15.664Z,15.38
2019-02-18T08:21:44.401Z,16.15
2019-02-18T08:24:13.028Z,19.27
2019-02-18T08:26:44.022Z,21.15
2019-02-18T08:29:11.962Z,19.85
2019-02-18T08:31:42.957Z,18.10
2019-02-18T08:34:14.633Z,18.12
2019-02-18T08:36:45.254Z,13.03
2019-02-18T08:39:14.127Z,10.70
2019-02-18T08:41:42.711Z,10.17
2019-02-18T08:44:11.315Z,13.73
2019-02-18T08:46:39.859Z,13.03
2019-02-18T08:49:08.488Z,12.20
2019-02-18T08:51:37.045Z,14.20
2019-02-18T08:54:05.647Z,18.03
2019-02-18T08:56:35.499Z,13.23
2019-02-18T08:59:05.675Z,13.17
2019-02-18T09:01:34.248Z,12.30
2019-02-18T09:04:03.996Z,11.37
2019-02-18T09:06:32.562Z,13.43
2019-02-18T09:09:03.277Z,12.17
2019-02-18T09:11:31.860Z,12.20
2019-02-18T09:14:00.473Z,10.60
2019-02-18T09:16:29.036Z,12.20
2019-02-18T09:18:57.644Z,11.70
2019-02-18T09:21:27.761Z,10.63
2019-02-18T09:24:07.041Z,11.67
2019-02-18T09:26:35.894Z,10.03
2019-02-18T09:29:04.626Z,9.93
2019-02-18T09:31:34.052Z,8.80
2019-02-18T09:34:02.724Z,8.43
2019-02-18T09:36:31.280Z,9.20
2019-02-18T09:38:59.945Z,8.77
2019-02-18T09:41:28.603Z,7.93
2019-02-18T09:43:57.245Z,8.13
2019-02-18T09:46:25.871Z,7.80
2019-02-18T09:48:54.885Z,8.30
2019-02-18T09:51:23.449Z,6.40
2019-02-18T09:53:52.069Z,5.97
2019-02-18T09:56:20.624Z,5.43
2019-02-18T09:58:50.282Z,5.77
2019-02-18T10:01:18.889Z,6.43
2019-02-18T10:03:47.489Z,5.70
2019-02-18T10:06:16.108Z,5.80
2019-02-18T10:08:44.809Z,6.87
2019-02-18T10:11:13.437Z,6.20
2019-02-18T10:13:42.038Z,5.80
2019-02-18T10:16:10.588Z,6.00
2019-02-18T10:18:39.203Z,6.17
2019-02-18T10:21:07.742Z,5.60
2019-02-18T10:23:36.297Z,6.30
2019-02-18T10:26:04.989Z,6.27
2019-02-18T10:28:33.547Z,5.30
2019-02-18T10:31:03.467Z,6.47
2019-02-18T10:33:32.040Z,5.47
2019-02-18T10:36:00.654Z,5.30
2019-02-18T10:38:29.208Z,6.40
2019-02-18T10:41:06.639Z,5.97
2019-02-18T10:43:32.443Z,5.80
2019-02-18T10:45:59.177Z,5.33
2019-02-18T10:48:28.588Z,6.10
2019-02-18T10:50:57.189Z,6.23
2019-02-18T10:53:25.752Z,6.07
2019-02-18T10:55:54.360Z,6.67
2019-02-18T10:58:22.928Z,5.77
2019-02-18T11:00:52.114Z,5.80
2019-02-18T11:03:20.995Z,6.77
2019-02-18T11:05:49.671Z,7.17
2019-02-18T11:08:18.229Z,11.57
2019-02-18T11:10:46.848Z,6.00
2019-02-18T11:13:16.442Z,5.73
2019-02-18T11:15:45.132Z,5.63
2019-02-18T11:18:13.689Z,6.00
2019-02-18T11:20:42.284Z,5.20
2019-02-18T11:23:10.843Z,5.60
2019-02-18T11:25:39.573Z,4.83
2019-02-18T11:28:08.144Z,5.03
2019-02-18T11:30:39.041Z,6.13
2019-02-18T11:33:07.494Z,4.83
2019-02-18T11:35:36.079Z,5.47
2019-02-18T11:38:04.640Z,5.30
2019-02-18T11:40:33.608Z,5.10
2019-02-18T11:43:02.176Z,5.07
2019-02-18T11:45:30.910Z,6.17
2019-02-18T11:47:59.464Z,5.87
2019-02-18T11:50:28.079Z,6.17
2019-02-18T11:52:57.589Z,5.80
2019-02-18T11:55:31.323Z,5.20
2019-02-18T11:58:00.057Z,5.43
2019-02-18T12:00:28.800Z,4.50
2019-02-18T12:03:04.008Z,4.67
2019-02-18T12:05:30.742Z,5.03
2019-02-18T12:07:59.455Z,5.50
2019-02-18T12:10:28.072Z,5.37
2019-02-18T12:12:56.609Z,5.33
2019-02-18T12:15:25.464Z,5.13
2019-02-18T12:17:54.091Z,4.83
2019-02-18T12:20:23.372Z,4.27
2019-02-18T12:22:51.953Z,5.27
2019-02-18T12:25:22.434Z,4.83
2019-02-18T12:27:51.724Z,4.97
2019-02-18T12:30:20.506Z,4.00
2019-02-18T12:32:49.064Z,4.60
2019-02-18T12:35:17.890Z,3.90
2019-02-18T12:37:55.039Z,4.23
2019-02-18T12:40:16.752Z,4.30
2019-02-18T12:42:47.587Z,4.03
2019-02-18T12:45:16.409Z,4.50
2019-02-18T12:47:46.167Z,3.93
2019-02-18T12:50:14.873Z,4.20
2019-02-18T12:52:43.534Z,4.43
2019-02-18T12:55:12.591Z,3.07
2019-02-18T12:57:41.220Z,3.40
2019-02-18T13:00:14.522Z,3.20
2019-02-18T13:02:44.913Z,2.80
2019-02-18T13:05:13.910Z,3.03
2019-02-18T13:07:42.567Z,3.30
2019-02-18T13:10:11.623Z,3.00
2019-02-18T13:12:40.595Z,2.80
2019-02-18T13:15:18.651Z,3.00
2019-02-18T13:17:47.395Z,3.33
2019-02-18T13:20:15.956Z,3.23
2019-02-18T13:22:44.704Z,3.40
2019-02-18T13:25:13.439Z,2.53
2019-02-18T13:27:42.107Z,3.07
2019-02-18T13:30:18.990Z,2.70
2019-02-18T13:32:47.595Z,3.13
2019-02-18T13:35:16.223Z,2.97
2019-02-18T13:37:44.823Z,2.80
2019-02-18T13:40:15.898Z,2.60
2019-02-18T13:42:44.793Z,3.00
2019-02-18T13:45:13.488Z,2.70
2019-02-18T13:47:42.180Z,2.93
2019-02-18T13:50:12.176Z,4.10
2019-02-18T13:52:40.961Z,7.37
2019-02-18T13:55:13.920Z,3.77
2019-02-18T13:57:42.961Z,3.10
2019-02-18T14:00:16.124Z,3.30
2019-02-18T14:02:44.726Z,2.40
2019-02-18T14:05:13.524Z,2.47
2019-02-18T14:07:42.116Z,2.70
2019-02-18T14:10:10.880Z,3.00
2019-02-18T14:12:39.846Z,2.90
2019-02-18T14:15:11.224Z,2.97
2019-02-18T14:17:39.833Z,3.07
2019-02-18T14:20:14.178Z,2.73
2019-02-18T14:22:43.148Z,2.80
2019-02-18T14:25:12.316Z,2.33
2019-02-18T14:27:41.153Z,2.47
2019-02-18T14:30:12.471Z,3.03
2019-02-18T14:32:41.094Z,2.83
2019-02-18T14:35:10.205Z,3.00
2019-02-18T14:37:38.958Z,2.90
2019-02-18T14:40:10.411Z,2.77
2019-02-18T14:42:39.090Z,2.80
2019-02-18T14:45:08.282Z,2.97
2019-02-18T14:47:37.063Z,2.40
2019-02-18T14:50:07.978Z,2.60
2019-02-18T14:52:36.576Z,2.77
2019-02-18T14:55:07.680Z,2.40
2019-02-18T14:57:36.439Z,2.57
2019-02-18T15:00:18.607Z,2.13
2019-02-18T15:02:47.260Z,2.63
2019-02-18T15:05:16.047Z,2.80
2019-02-18T15:07:44.840Z,2.77
2019-02-18T15:10:14.840Z,2.90
2019-02-18T15:12:43.686Z,2.57
2019-02-18T15:15:12.331Z,2.93
2019-02-18T15:17:40.932Z,2.87
2019-02-18T15:20:11.507Z,2.77
2019-02-18T15:22:40.247Z,2.90
2019-02-18T15:25:10.040Z,3.17
2019-02-18T15:27:38.816Z,2.77
2019-02-18T15:30:10.848Z,2.60
2019-02-18T15:32:39.744Z,2.40
2019-02-18T15:35:08.450Z,2.90
2019-02-18T15:37:37.176Z,3.00
2019-02-18T15:40:08.908Z,3.00
2019-02-18T15:42:42.237Z,2.60
2019-02-18T15:45:08.507Z,2.50
2019-02-18T15:47:37.228Z,2.97
2019-02-18T15:50:08.967Z,3.50
2019-02-18T15:52:37.653Z,3.50
2019-02-18T15:55:06.864Z,3.70
2019-02-18T15:57:35.554Z,4.70
2019-02-18T16:00:09.312Z,3.97
2019-02-18T16:02:37.953Z,4.40
2019-02-18T16:05:07.032Z,5.87
2019-02-18T16:07:35.783Z,6.20
2019-02-18T16:10:06.286Z,5.57
2019-02-18T16:12:34.889Z,6.03
2019-02-18T16:15:04.193Z,6.90
2019-02-18T16:17:32.878Z,6.87
2019-02-18T16:20:01.732Z,5.67
2019-02-18T16:22:30.337Z,6.33
2019-02-18T16:24:58.899Z,5.23
2019-02-18T16:27:27.593Z,5.23
2019-02-18T16:29:56.152Z,4.80
2019-02-18T16:32:24.768Z,5.60
2019-02-18T16:34:53.391Z,4.67
2019-02-18T16:37:22.233Z,4.40
2019-02-18T16:39:50.787Z,4.17
2019-02-18T16:42:19.416Z,3.70
2019-02-18T16:44:49.346Z,8.00
2019-02-18T16:47:17.958Z,3.60
2019-02-18T16:49:46.908Z,3.20
2019-02-18T16:52:15.498Z,4.00
2019-02-18T16:54:44.129Z,3.87
2019-02-18T16:57:12.760Z,3.67
2019-02-18T16:59:41.319Z,3.90
2019-02-18T17:02:09.928Z,3.50
2019-02-18T17:04:38.488Z,3.47
2019-02-18T17:07:07.237Z,3.40
2019-02-18T17:09:35.790Z,3.13
2019-02-18T17:12:04.488Z,3.17
2019-02-18T17:14:33.048Z,5.33
2019-02-18T17:17:01.756Z,3.30
2019-02-18T17:19:30.301Z,3.60
2019-02-18T17:21:59.127Z,6.03
2019-02-18T17:24:27.680Z,5.70
2019-02-18T17:26:56.300Z,5.57
2019-02-18T17:29:24.852Z,6.60
2019-02-18T17:31:53.408Z,6.73
2019-02-18T17:34:22.038Z,35.20
2019-02-18T17:36:50.597Z,11.73
2019-02-18T17:39:19.494Z,9.77
2019-02-18T17:41:48.044Z,13.80
2019-02-18T17:44:20.267Z,31.50
2019-02-18T17:46:46.964Z,11.00
2019-02-18T17:49:15.583Z,10.60
2019-02-18T17:51:44.149Z,19.40
2019-02-18T17:54:13.076Z,16.70
2019-02-18T17:56:41.647Z,8.80
2019-02-18T17:59:10.269Z,9.17
2019-02-18T18:01:38.820Z,8.93
2019-02-18T18:04:07.444Z,7.70
2019-02-18T18:06:35.999Z,7.90
2019-02-18T18:09:06.240Z,6.60
2019-02-18T18:11:34.800Z,6.30
2019-02-18T18:14:03.424Z,5.67
2019-02-18T18:16:32.051Z,5.37
2019-02-18T18:19:08.920Z,5.10
2019-02-18T18:21:30.878Z,4.87
2019-02-18T18:23:59.492Z,4.93
2019-02-18T18:26:28.053Z,12.97
2019-02-18T18:28:56.691Z,14.13
2019-02-18T18:31:25.322Z,31.43
2019-02-18T18:33:54.113Z,15.10
2019-02-18T18:36:22.744Z,10.70
2019-02-18T18:38:51.385Z,21.77
2019-02-18T18:41:20.146Z,10.63
2019-02-18T18:43:48.763Z,6.00
2019-02-18T18:46:17.324Z,6.03
2019-02-18T18:48:45.968Z,7.67
2019-02-18T18:51:14.529Z,7.93
2019-02-18T18:53:43.160Z,8.47
2019-02-18T18:56:12.084Z,8.70
2019-02-18T18:58:40.716Z,8.90
2019-02-18T19:01:09.351Z,8.20
2019-02-18T19:03:37.984Z,6.47
2019-02-18T19:06:06.534Z,5.87
2019-02-18T19:08:35.445Z,5.47
2019-02-18T19:11:04.201Z,5.10
2019-02-18T19:13:32.835Z,4.10
2019-02-18T19:16:01.380Z,4.10
2019-02-18T19:18:30.011Z,3.80
2019-02-18T19:20:58.565Z,4.00
2019-02-18T19:23:27.196Z,3.97
2019-02-18T19:25:56.192Z,3.60
2019-02-18T19:28:24.823Z,12.03
2019-02-18T19:30:53.384Z,12.50
2019-02-18T19:33:22.007Z,7.13
2019-02-18T19:35:50.574Z,6.97
2019-02-18T19:38:19.126Z,7.20
2019-02-18T19:40:48.055Z,6.70
2019-02-18T19:43:16.620Z,8.03
2019-02-18T19:45:45.694Z,8.43
2019-02-18T19:48:14.247Z,11.80
2019-02-18T19:50:42.884Z,8.87
2019-02-18T19:53:11.445Z,9.87
2019-02-18T19:55:40.371Z,9.60
2019-02-18T19:58:08.933Z,8.27
2019-02-18T20:00:37.627Z,7.83
2019-02-18T20:03:06.181Z,8.57
2019-02-18T20:05:34.820Z,8.37
2019-02-18T20:08:03.719Z,7.23
2019-02-18T20:10:32.649Z,7.30
2019-02-18T20:13:01.196Z,6.47
2019-02-18T20:15:29.828Z,6.47
2019-02-18T20:17:58.432Z,7.10
2019-02-18T20:20:27.065Z,7.57
2019-02-18T20:22:55.612Z,8.57
2019-02-18T20:25:24.246Z,7.47
2019-02-18T20:27:52.810Z,7.07
2019-02-18T20:30:21.447Z,7.33
2019-02-18T20:32:50.000Z,5.57
2019-02-18T20:35:18.628Z,6.57
2019-02-18T20:37:47.179Z,6.13
2019-02-18T20:40:15.871Z,5.10
2019-02-18T20:42:44.433Z,5.20
2019-02-18T20:45:13.996Z,5.87
2019-02-18T20:47:42.694Z,7.40
2019-02-18T20:50:12.873Z,9.90
2019-02-18T20:52:41.496Z,9.87
2019-02-18T20:55:12.072Z,10.50
2019-02-18T20:57:40.697Z,9.03
2019-02-18T21:00:14.028Z,9.57
2019-02-18T21:02:42.593Z,10.47
2019-02-18T21:05:11.287Z,11.43
2019-02-18T21:07:39.847Z,11.47
2019-02-18T21:10:11.884Z,11.67
2019-02-18T21:12:40.511Z,25.93
2019-02-18T21:15:09.963Z,15.77
2019-02-18T21:17:38.525Z,10.50
2019-02-18T21:20:09.663Z,9.33
2019-02-18T21:22:38.292Z,10.00
2019-02-18T21:25:08.660Z,9.20
2019-02-18T21:27:37.220Z,8.17
2019-02-18T21:30:15.940Z,8.93
2019-02-18T21:32:44.616Z,12.27
2019-02-18T21:35:13.380Z,12.00
2019-02-18T21:37:42.312Z,11.20
2019-02-18T21:40:11.773Z,9.90
2019-02-18T21:42:40.332Z,8.87
2019-02-18T21:45:11.635Z,8.80
2019-02-18T21:47:40.198Z,13.10
2019-02-18T21:50:10.680Z,13.53
2019-02-18T21:52:39.537Z,11.30
2019-02-18T21:55:13.934Z,10.20
2019-02-18T21:57:42.500Z,8.43
2019-02-18T22:00:24.459Z,6.50
2019-02-18T22:02:53.093Z,5.97
2019-02-18T22:05:21.792Z,5.60
2019-02-18T22:07:50.354Z,5.10
2019-02-18T22:10:18.965Z,3.55
2019-02-18T22:12:47.580Z,3.80
2019-02-18T22:15:16.387Z,3.42
2019-02-18T22:17:44.997Z,3.43
2019-02-18T22:20:14.393Z,3.50
2019-02-18T22:22:43.126Z,3.70
2019-02-18T22:25:12.829Z,3.60
2019-02-18T22:27:41.428Z,5.10
2019-02-18T22:30:14.908Z,5.40
2019-02-18T22:32:43.572Z,5.23
2019-02-18T22:35:12.190Z,4.70
2019-02-18T22:37:40.874Z,5.50
2019-02-18T22:40:11.155Z,5.87
2019-02-18T22:42:39.764Z,6.08
2019-02-18T22:45:10.264Z,6.58
2019-02-18T22:47:38.885Z,7.00
2019-02-18T22:50:09.881Z,6.03
2019-02-18T22:52:38.549Z,6.60
2019-02-18T22:55:07.788Z,6.13
2019-02-18T22:57:36.351Z,5.97
2019-02-18T23:00:08.106Z,5.70
2019-02-18T23:02:36.661Z,5.17
2019-02-18T23:05:05.564Z,5.13
2019-02-18T23:07:34.364Z,5.42
2019-02-18T23:10:02.920Z,5.50
2019-02-18T23:12:31.535Z,5.83
2019-02-18T23:15:00.274Z,5.80
2019-02-18T23:17:28.871Z,5.30
2019-02-18T23:19:57.422Z,5.00
2019-02-18T23:22:26.026Z,5.55
2019-02-18T23:24:54.584Z,5.40
2019-02-18T23:27:23.187Z,4.80
2019-02-18T23:29:51.754Z,4.90
2019-02-18T23:32:20.349Z,4.55
2019-02-18T23:34:48.916Z,5.05
2019-02-18T23:37:17.521Z,5.20
2019-02-18T23:39:46.142Z,5.28
2019-02-18T23:42:14.744Z,6.90
2019-02-18T23:44:44.576Z,6.15
2019-02-18T23:47:13.184Z,5.67
2019-02-18T23:49:41.750Z,4.78
2019-02-18T23:52:10.353Z,5.10
2019-02-18T23:54:38.923Z,4.37
2019-02-18T23:57:07.519Z,5.12
2019-02-18T23:59:36.080Z,6.15
